Aurora, MN

1:50 AM CDT on September 03, 2015 (GMT -0500)
APRSWXNET | | Change Station
CLOSE
Current Station
Personal Weather Station
Location: Aurora, MN
Elevation: 1437 ft
Nearby Weather Stations

Elev 1437 ft 47.52 °N, 92.24 °W | Updated 28 minutes ago

Fog
Fog
59 °F
Feels Like 59 °F
N
0
Wind Variable Wind from SW
Gusts 3.0 mph

Today
High -- | Low -- °F
--% Chance of Precip.
Yesterday
High -- | Low -- °F
Precip. -- in
6:30 AM 7:45 PM
Waning Gibbous, 73% visible
Pressure 29.99 in
Visibility 0.2 miles
Clouds
Dew Point 58 °F
Humidity 96%
Rainfall in
Snow Depth Not available.
UV Not available.
Pollen 9.00 out of 12
Air Quality Not available.
Flu Activity Not available.
METAR KEVM 030632Z AUTO 00000KT 1/4SM FG VV002 14/14 A2999 RMK AO2
Pressure 29.99 in
Visibility 0.2 miles
Clouds
Dew Point 58 °F
Humidity 96%
Rainfall in
Snow Depth Not available.
UV Not available.
Pollen 9.00 out of 12
Air Quality Not available.
Flu Activity Not available.
METAR KEVM 030632Z AUTO 00000KT 1/4SM FG VV002 14/14 A2999 RMK AO2

10-Day Weather Forecast

×

Almanac

Astronomy

Sep. 03, 2015 Rise Set
Actual Time
Civil Twilight
Nautical Twilight
Astronomical Twilight
Moon
Length of Visible Light
Length of Day
Tomorrow will be .
, % of the Moon is Illuminated

Today's Extremes

State Highs State Lows

Community

WunderPhotos

Upload Photos

1,851,913 photos uploaded!

WunderBlogs® & News

Nearby

Air Quality

  Air Quality AQ Index Pollutant
Not available.

Snow Depth

Station Depth Elevation

Earthquake Activity

City Distance Mag. Time & Date
Minimum magnitude displayed is 2.5.

Coastal Water Temperatures

Place Temperature

Stations

Nearby Weather Stations

Station Location Temp. Windchill Dew Point Humidity Wind Precip. Elev Updated Type